Time,TemperatureF,DewpointF,PressureIn,WindDirection,WindDirectionDegrees,WindSpeedMPH,WindSpeedGustMPH,Humidity,HourlyPrecipIn,Conditions,Clouds,dailyrainin,SoftwareType,DateUTC
2013-01-14 00:00:00,-5.8,-10.4,23.18,WSW,248,0.0,0.0,80,0.00,,,0.00,WUHU216HW,2013-01-14 07:00:00,
2013-01-14 00:05:00,-5.8,-10.4,23.18,WSW,248,0.0,0.0,80,0.00,,,0.00,WUHU216HW,2013-01-14 07:05:00,
2013-01-14 00:30:00,-6.3,-11.0,23.19,WSW,248,0.4,0.4,80,0.00,,,0.00,WUHU216HW,2013-01-14 07:30:00,
2013-01-14 00:35:00,-6.3,-11.0,23.19,WSW,248,0.4,0.4,80,0.00,,,0.00,WUHU216HW,2013-01-14 07:35:00,
2013-01-14 01:00:00,-6.1,-10.5,23.18,West,270,0.7,0.7,81,0.00,,,0.00,WUHU216HW,2013-01-14 08:00:00,
2013-01-14 01:05:00,-6.1,-10.5,23.18,West,270,0.7,0.7,81,0.00,,,0.00,WUHU216HW,2013-01-14 08:05:00,
2013-01-14 01:30:00,-6.1,-10.5,23.17,West,270,0.2,0.2,81,0.00,,,0.00,WUHU216HW,2013-01-14 08:30:00,
2013-01-14 01:35:00,-6.1,-10.5,23.17,West,270,0.2,0.2,81,0.00,,,0.00,WUHU216HW,2013-01-14 08:35:00,
2013-01-14 02:00:00,-6.7,-11.1,23.19,West,270,0.0,0.0,81,0.00,,,0.00,WUHU216HW,2013-01-14 09:00:00,
2013-01-14 02:05:00,-6.7,-11.1,23.19,West,270,0.0,0.0,81,0.00,,,0.00,WUHU216HW,2013-01-14 09:05:00,
2013-01-14 02:30:00,-6.1,-10.5,23.19,WNW,293,0.0,0.0,81,0.00,,,0.00,WUHU216HW,2013-01-14 09:30:00,
2013-01-14 02:35:00,-6.1,-10.5,23.19,WNW,293,0.0,0.0,81,0.00,,,0.00,WUHU216HW,2013-01-14 09:35:00,
2013-01-14 03:00:00,-5.4,-9.8,23.20,West,270,0.2,0.2,81,0.00,,,0.00,WUHU216HW,2013-01-14 10:00:00,
2013-01-14 03:05:00,-5.4,-9.8,23.20,West,270,0.2,0.2,81,0.00,,,0.00,WUHU216HW,2013-01-14 10:05:00,
2013-01-14 03:30:00,-5.8,-10.2,23.19,NNW,338,0.0,0.0,81,0.00,,,0.00,WUHU216HW,2013-01-14 10:30:00,
2013-01-14 03:35:00,-5.8,-10.2,23.19,NNW,338,0.0,0.0,81,0.00,,,0.00,WUHU216HW,2013-01-14 10:35:00,
2013-01-14 04:00:00,-7.7,-12.4,23.20,SW,225,0.2,0.2,80,0.00,,,0.00,WUHU216HW,2013-01-14 11:00:00,
2013-01-14 04:05:00,-7.7,-12.4,23.20,SW,225,0.2,0.2,80,0.00,,,0.00,WUHU216HW,2013-01-14 11:05:00,
2013-01-14 04:30:00,-8.1,-12.5,23.19,West,270,0.0,0.0,81,0.00,,,0.00,WUHU216HW,2013-01-14 11:30:00,
2013-01-14 04:35:00,-8.1,-12.5,23.19,West,270,0.0,0.0,81,0.00,,,0.00,WUHU216HW,2013-01-14 11:35:00,
2013-01-14 05:00:00,-7.6,-12.0,23.19,NNW,338,0.0,0.0,81,0.00,,,0.00,WUHU216HW,2013-01-14 12:00:00,
2013-01-14 05:05:00,-7.6,-12.0,23.19,NNW,338,0.0,0.0,81,0.00,,,0.00,WUHU216HW,2013-01-14 12:05:00,
2013-01-14 05:30:00,-7.9,-12.3,23.19,WNW,293,0.0,0.0,81,0.00,,,0.00,WUHU216HW,2013-01-14 12:30:00,
2013-01-14 05:35:00,-7.9,-12.3,23.19,WNW,293,0.0,0.0,81,0.00,,,0.00,WUHU216HW,2013-01-14 12:35:00,
2013-01-14 06:00:00,-7.0,-11.4,23.20,NW,315,0.0,0.0,81,0.00,,,0.00,WUHU216HW,2013-01-14 13:00:00,
2013-01-14 06:05:00,-7.0,-11.4,23.20,NW,315,0.0,0.0,81,0.00,,,0.00,WUHU216HW,2013-01-14 13:05:00,
2013-01-14 06:30:00,-6.3,-10.4,23.21,NW,315,0.0,0.0,82,0.00,,,0.00,WUHU216HW,2013-01-14 13:30:00,
2013-01-14 06:35:00,-6.3,-10.4,23.21,NW,315,0.0,0.0,82,0.00,,,0.00,WUHU216HW,2013-01-14 13:35:00,
2013-01-14 07:00:00,-5.8,-9.9,23.22,WNW,293,0.0,0.0,82,0.00,,,0.00,WUHU216HW,2013-01-14 14:00:00,
2013-01-14 07:05:00,-5.8,-9.9,23.22,WNW,293,0.0,0.0,82,0.00,,,0.00,WUHU216HW,2013-01-14 14:05:00,
2013-01-14 07:30:00,-6.3,-10.7,23.23,ENE,68,0.2,0.2,81,0.00,,,0.00,WUHU216HW,2013-01-14 14:30:00,
2013-01-14 07:35:00,-6.3,-10.7,23.23,ENE,68,0.2,0.2,81,0.00,,,0.00,WUHU216HW,2013-01-14 14:35:00,
2013-01-14 08:00:00,-6.8,-11.2,23.23,ENE,68,0.0,0.0,81,0.00,,,0.00,WUHU216HW,2013-01-14 15:00:00,
2013-01-14 08:05:00,-6.8,-11.2,23.23,ENE,68,0.0,0.0,81,0.00,,,0.00,WUHU216HW,2013-01-14 15:05:00,
2013-01-14 08:30:00,-6.3,-10.7,23.24,NW,315,0.0,0.0,81,0.00,,,0.00,WUHU216HW,2013-01-14 15:30:00,
2013-01-14 08:35:00,-6.3,-10.7,23.24,NW,315,0.0,0.0,81,0.00,,,0.00,WUHU216HW,2013-01-14 15:35:00,
2013-01-14 09:00:00,-5.2,-9.6,23.24,NNE,23,0.0,0.0,81,0.00,,,0.00,WUHU216HW,2013-01-14 16:00:00,
2013-01-14 09:05:00,-5.2,-9.6,23.24,NNE,23,0.0,0.0,81,0.00,,,0.00,WUHU216HW,2013-01-14 16:05:00,
2013-01-14 09:30:00,-5.0,-9.4,23.25,ENE,68,0.0,0.0,81,0.00,,,0.00,WUHU216HW,2013-01-14 16:30:00,
2013-01-14 09:35:00,-5.0,-9.4,23.25,ENE,68,0.0,0.0,81,0.00,,,0.00,WUHU216HW,2013-01-14 16:35:00,
2013-01-14 10:00:00,-3.8,-8.2,23.26,SE,135,0.0,0.0,81,0.00,,,0.00,WUHU216HW,2013-01-14 17:00:00,
2013-01-14 10:05:00,-3.8,-8.2,23.26,SE,135,0.0,0.0,81,0.00,,,0.00,WUHU216HW,2013-01-14 17:05:00,
2013-01-14 10:30:00,-0.7,-4.9,23.26,NW,315,0.0,0.0,82,0.00,,,0.00,WUHU216HW,2013-01-14 17:30:00,
2013-01-14 10:35:00,-0.7,-4.9,23.26,NW,315,0.0,0.0,82,0.00,,,0.00,WUHU216HW,2013-01-14 17:35:00,
2013-01-14 11:00:00,-1.1,-5.3,23.26,ENE,68,0.0,0.0,82,0.00,,,0.00,WUHU216HW,2013-01-14 18:00:00,
2013-01-14 11:05:00,-1.1,-5.3,23.26,ENE,68,0.0,0.0,82,0.00,,,0.00,WUHU216HW,2013-01-14 18:05:00,
2013-01-14 11:30:00,0.4,-3.9,23.25,East,90,0.7,0.7,82,0.00,,,0.00,WUHU216HW,2013-01-14 18:30:00,
2013-01-14 11:35:00,0.4,-3.9,23.25,East,90,0.7,0.7,82,0.00,,,0.00,WUHU216HW,2013-01-14 18:35:00,
2013-01-14 12:00:00,1.4,-2.9,23.24,ESE,113,0.7,0.7,82,0.00,,,0.00,WUHU216HW,2013-01-14 19:00:00,
2013-01-14 12:05:00,1.4,-2.9,23.24,ESE,113,0.7,0.7,82,0.00,,,0.00,WUHU216HW,2013-01-14 19:05:00,
2013-01-14 12:30:00,3.2,-1.3,23.24,WSW,248,0.2,0.2,81,0.00,,,0.00,WUHU216HW,2013-01-14 19:30:00,
2013-01-14 12:35:00,3.2,-1.3,23.24,WSW,248,0.2,0.2,81,0.00,,,0.00,WUHU216HW,2013-01-14 19:35:00,
2013-01-14 13:00:00,4.1,-0.7,23.24,SW,225,0.0,0.0,80,0.00,,,0.00,WUHU216HW,2013-01-14 20:00:00,
2013-01-14 13:05:00,4.1,-0.7,23.24,SW,225,0.0,0.0,80,0.00,,,0.00,WUHU216HW,2013-01-14 20:05:00,
2013-01-14 13:30:00,3.2,-1.6,23.24,SW,225,0.4,0.4,80,0.00,,,0.00,WUHU216HW,2013-01-14 20:30:00,
2013-01-14 13:35:00,3.2,-1.6,23.24,SW,225,0.4,0.4,80,0.00,,,0.00,WUHU216HW,2013-01-14 20:35:00,
2013-01-14 14:00:00,2.5,-2.6,23.24,West,270,1.3,1.3,79,0.00,,,0.00,WUHU216HW,2013-01-14 21:00:00,
2013-01-14 14:05:00,2.5,-2.6,23.24,West,270,1.3,1.3,79,0.00,,,0.00,WUHU216HW,2013-01-14 21:05:00,
2013-01-14 14:30:00,1.8,-3.6,23.25,SSW,203,0.7,0.7,78,0.00,,,0.00,WUHU216HW,2013-01-14 21:30:00,
2013-01-14 14:35:00,1.8,-3.6,23.25,SSW,203,0.7,0.7,78,0.00,,,0.00,WUHU216HW,2013-01-14 21:35:00,
2013-01-14 15:00:00,1.4,-4.0,23.25,SW,225,0.0,0.0,78,0.00,,,0.00,WUHU216HW,2013-01-14 22:00:00,
2013-01-14 15:05:00,1.4,-4.0,23.25,SW,225,0.0,0.0,78,0.00,,,0.00,WUHU216HW,2013-01-14 22:05:00,
2013-01-14 15:30:00,1.4,-3.7,23.27,SSW,203,1.6,1.6,79,0.00,,,0.00,WUHU216HW,2013-01-14 22:30:00,
2013-01-14 15:35:00,1.4,-3.7,23.27,SSW,203,1.6,1.6,79,0.00,,,0.00,WUHU216HW,2013-01-14 22:35:00,
2013-01-14 16:00:00,0.5,-4.5,23.27,WNW,293,1.1,1.1,79,0.00,,,0.00,WUHU216HW,2013-01-14 23:00:00,
2013-01-14 16:05:00,0.5,-4.5,23.27,WNW,293,1.1,1.1,79,0.00,,,0.00,WUHU216HW,2013-01-14 23:05:00,
2013-01-14 16:30:00,0.5,-4.2,23.28,WSW,248,1.3,1.3,80,0.00,,,0.00,WUHU216HW,2013-01-14 23:30:00,
2013-01-14 16:35:00,0.5,-4.2,23.28,WSW,248,1.3,1.3,80,0.00,,,0.00,WUHU216HW,2013-01-14 23:35:00,
2013-01-14 17:00:00,0.0,-4.7,23.28,WNW,293,0.4,0.4,80,0.00,,,0.00,WUHU216HW,2013-01-15 00:00:00,
2013-01-14 17:05:00,0.0,-4.7,23.28,WNW,293,0.4,0.4,80,0.00,,,0.00,WUHU216HW,2013-01-15 00:05:00,
2013-01-14 17:30:00,-0.5,-5.2,23.28,West,270,2.7,2.7,80,0.00,,,0.00,WUHU216HW,2013-01-15 00:30:00,
2013-01-14 17:35:00,-0.5,-5.2,23.28,West,270,2.7,2.7,80,0.00,,,0.00,WUHU216HW,2013-01-15 00:35:00,
2013-01-14 18:00:00,-1.1,-5.8,23.29,WNW,293,4.7,4.7,80,0.00,,,0.00,WUHU216HW,2013-01-15 01:00:00,
2013-01-14 18:05:00,-1.1,-5.8,23.29,WNW,293,4.7,4.7,80,0.00,,,0.00,WUHU216HW,2013-01-15 01:05:00,
2013-01-14 18:30:00,-1.1,-5.5,23.30,WSW,248,0.7,0.7,81,0.00,,,0.00,WUHU216HW,2013-01-15 01:30:00,
2013-01-14 18:35:00,-1.1,-5.5,23.30,WSW,248,0.7,0.7,81,0.00,,,0.00,WUHU216HW,2013-01-15 01:35:00,
2013-01-14 19:00:00,-0.7,-5.1,23.30,WNW,293,3.1,3.1,81,0.00,,,0.00,WUHU216HW,2013-01-15 02:00:00,
2013-01-14 19:05:00,-0.7,-5.1,23.30,WNW,293,3.1,3.1,81,0.00,,,0.00,WUHU216HW,2013-01-15 02:05:00,
2013-01-14 19:30:00,-0.7,-4.9,23.30,WSW,248,2.5,2.5,82,0.00,,,0.00,WUHU216HW,2013-01-15 02:30:00,
2013-01-14 19:35:00,-0.7,-4.9,23.30,WSW,248,2.5,2.5,82,0.00,,,0.00,WUHU216HW,2013-01-15 02:35:00,
2013-01-14 20:00:00,-0.4,-4.6,23.30,WNW,293,1.1,1.1,82,0.00,,,0.00,WUHU216HW,2013-01-15 03:00:00,
2013-01-14 20:05:00,-0.4,-4.6,23.30,WNW,293,1.1,1.1,82,0.00,,,0.00,WUHU216HW,2013-01-15 03:05:00,
2013-01-14 20:30:00,-0.5,-4.8,23.30,WNW,293,3.1,3.1,82,0.00,,,0.00,WUHU216HW,2013-01-15 03:30:00,
2013-01-14 20:35:00,-0.5,-4.8,23.30,WNW,293,3.1,3.1,82,0.00,,,0.00,WUHU216HW,2013-01-15 03:35:00,
2013-01-14 21:00:00,-0.5,-4.8,23.31,WSW,248,1.8,3.4,82,0.00,,,0.00,WUHU216HW,2013-01-15 04:00:00,
2013-01-14 21:05:00,-0.5,-4.8,23.31,WSW,248,1.8,3.4,82,0.00,,,0.00,WUHU216HW,2013-01-15 04:05:00,
2013-01-14 21:30:00,-0.5,-4.8,23.31,WNW,293,1.8,1.8,82,0.00,,,0.00,WUHU216HW,2013-01-15 04:30:00,
2013-01-14 21:35:00,-0.5,-4.8,23.31,WNW,293,1.8,1.8,82,0.00,,,0.00,WUHU216HW,2013-01-15 04:35:00,
2013-01-14 22:00:00,-0.5,-4.8,23.31,WNW,293,1.1,1.1,82,0.00,,,0.00,WUHU216HW,2013-01-15 05:00:00,
2013-01-14 22:01:00,-0.5,-4.8,23.31,WNW,293,1.1,1.1,82,0.00,,,0.00,WUHU216HW,2013-01-15 05:01:00,
2013-01-14 22:02:00,-0.5,-4.8,23.31,WNW,293,1.1,1.1,82,0.00,,,0.00,WUHU216HW,2013-01-15 05:02:00,
2013-01-14 22:07:00,-0.5,-4.8,23.31,WNW,293,1.1,1.1,82,0.00,,,0.00,WUHU216HW,2013-01-15 05:07:00,
2013-01-14 22:30:00,-0.2,-4.4,23.32,WNW,293,1.8,1.8,82,0.00,,,0.00,WUHU216HW,2013-01-15 05:30:00,
2013-01-14 22:35:00,-0.2,-4.4,23.32,WNW,293,1.8,1.8,82,0.00,,,0.00,WUHU216HW,2013-01-15 05:35:00,
2013-01-14 23:00:00,-0.4,-4.6,23.33,West,270,2.0,2.0,82,0.00,,,0.00,WUHU216HW,2013-01-15 06:00:00,
2013-01-14 23:05:00,-0.4,-4.6,23.33,West,270,2.0,2.0,82,0.00,,,0.00,WUHU216HW,2013-01-15 06:05:00,
2013-01-14 23:30:00,0.4,-3.7,23.34,WNW,293,1.1,1.1,83,0.00,,,0.00,WUHU216HW,2013-01-15 06:30:00,
2013-01-14 23:35:00,0.4,-3.7,23.34,WNW,293,1.1,1.1,83,0.00,,,0.00,WUHU216HW,2013-01-15 06:35:00,